sensor_id;sensor_type;location;lat;lon;timestamp;P1;durP1;ratioP1;P2;durP2;ratioP2
42802;SDS011;28447;48.682;9.022;2023-12-29T05:01:51;10.30;;;5.43;;
42802;SDS011;28447;48.682;9.022;2023-12-29T05:04:17;7.33;;;5.43;;
42802;SDS011;28447;48.682;9.022;2023-12-29T05:06:43;6.40;;;4.93;;
42802;SDS011;28447;48.682;9.022;2023-12-29T05:09:09;5.30;;;4.60;;
42802;SDS011;28447;48.682;9.022;2023-12-29T05:11:35;10.80;;;5.30;;
42802;SDS011;28447;48.682;9.022;2023-12-29T05:14:01;7.10;;;4.60;;
42802;SDS011;28447;48.682;9.022;2023-12-29T05:16:27;7.23;;;5.00;;
42802;SDS011;28447;48.682;9.022;2023-12-29T05:18:53;5.23;;;4.70;;
42802;SDS011;28447;48.682;9.022;2023-12-29T05:21:19;7.30;;;5.50;;
42802;SDS011;28447;48.682;9.022;2023-12-29T05:23:46;8.43;;;4.90;;
42802;SDS011;28447;48.682;9.022;2023-12-29T05:26:13;9.40;;;5.93;;
42802;SDS011;28447;48.682;9.022;2023-12-29T05:28:39;6.10;;;5.10;;
42802;SDS011;28447;48.682;9.022;2023-12-29T05:31:06;6.63;;;5.13;;
42802;SDS011;28447;48.682;9.022;2023-12-29T05:33:32;6.00;;;4.80;;
42802;SDS011;28447;48.682;9.022;2023-12-29T05:35:58;6.43;;;4.80;;
42802;SDS011;28447;48.682;9.022;2023-12-29T05:38:25;7.67;;;5.17;;
42802;SDS011;28447;48.682;9.022;2023-12-29T05:40:51;8.57;;;5.00;;
42802;SDS011;28447;48.682;9.022;2023-12-29T05:43:17;5.80;;;4.70;;
42802;SDS011;28447;48.682;9.022;2023-12-29T05:45:43;8.13;;;5.20;;
42802;SDS011;28447;48.682;9.022;2023-12-29T05:48:09;7.87;;;5.27;;
42802;SDS011;28447;48.682;9.022;2023-12-29T05:50:36;8.10;;;4.80;;
42802;SDS011;28447;48.682;9.022;2023-12-29T05:53:02;6.80;;;4.83;;
42802;SDS011;28447;48.682;9.022;2023-12-29T05:55:28;6.57;;;4.50;;
42802;SDS011;28447;48.682;9.022;2023-12-29T05:57:54;5.30;;;4.43;;
42802;SDS011;28447;48.682;9.022;2023-12-29T06:00:20;6.10;;;4.87;;
42802;SDS011;28447;48.682;9.022;2023-12-29T06:02:46;8.33;;;4.70;;
42802;SDS011;28447;48.682;9.022;2023-12-29T06:05:12;5.13;;;4.30;;
42802;SDS011;28447;48.682;9.022;2023-12-29T06:07:39;8.50;;;4.70;;
42802;SDS011;28447;48.682;9.022;2023-12-29T06:10:05;4.97;;;4.37;;
42802;SDS011;28447;48.682;9.022;2023-12-29T06:12:31;5.47;;;4.50;;
42802;SDS011;28447;48.682;9.022;2023-12-29T06:14:57;6.00;;;4.60;;
42802;SDS011;28447;48.682;9.022;2023-12-29T06:17:23;5.57;;;4.10;;
42802;SDS011;28447;48.682;9.022;2023-12-29T06:19:49;5.70;;;4.63;;
42802;SDS011;28447;48.682;9.022;2023-12-29T06:22:15;5.07;;;4.13;;
42802;SDS011;28447;48.682;9.022;2023-12-29T06:24:41;10.60;;;5.00;;
42802;SDS011;28447;48.682;9.022;2023-12-29T06:27:08;5.70;;;4.50;;
42802;SDS011;28447;48.682;9.022;2023-12-29T06:29:34;5.10;;;4.60;;
42802;SDS011;28447;48.682;9.022;2023-12-29T06:32:00;5.70;;;4.60;;
42802;SDS011;28447;48.682;9.022;2023-12-29T06:34:26;5.23;;;4.33;;
42802;SDS011;28447;48.682;9.022;2023-12-29T06:36:52;5.37;;;4.30;;
42802;SDS011;28447;48.682;9.022;2023-12-29T06:39:18;6.77;;;4.80;;
42802;SDS011;28447;48.682;9.022;2023-12-29T06:41:44;6.87;;;4.77;;
42802;SDS011;28447;48.682;9.022;2023-12-29T06:44:10;5.40;;;4.43;;
42802;SDS011;28447;48.682;9.022;2023-12-29T06:46:37;5.50;;;4.70;;
42802;SDS011;28447;48.682;9.022;2023-12-29T06:49:03;5.63;;;4.57;;
42802;SDS011;28447;48.682;9.022;2023-12-29T06:51:29;6.70;;;5.30;;
42802;SDS011;28447;48.682;9.022;2023-12-29T06:53:55;4.90;;;4.20;;
42802;SDS011;28447;48.682;9.022;2023-12-29T06:56:21;5.17;;;4.20;;
42802;SDS011;28447;48.682;9.022;2023-12-29T06:58:47;5.53;;;4.40;;
42802;SDS011;28447;48.682;9.022;2023-12-29T07:01:13;6.13;;;4.43;;
42802;SDS011;28447;48.682;9.022;2023-12-29T07:03:41;5.30;;;4.10;;
42802;SDS011;28447;48.682;9.022;2023-12-29T07:06:07;7.03;;;4.73;;
42802;SDS011;28447;48.682;9.022;2023-12-29T07:08:33;5.50;;;4.67;;
42802;SDS011;28447;48.682;9.022;2023-12-29T07:10:59;9.20;;;4.90;;
42802;SDS011;28447;48.682;9.022;2023-12-29T07:13:25;6.37;;;4.73;;
42802;SDS011;28447;48.682;9.022;2023-12-29T07:15:51;6.37;;;4.40;;
42802;SDS011;28447;48.682;9.022;2023-12-29T07:18:17;3.97;;;3.60;;
42802;SDS011;28447;48.682;9.022;2023-12-29T07:20:43;5.80;;;4.40;;
42802;SDS011;28447;48.682;9.022;2023-12-29T07:23:09;6.40;;;4.20;;
42802;SDS011;28447;48.682;9.022;2023-12-29T07:25:35;5.60;;;4.30;;
42802;SDS011;28447;48.682;9.022;2023-12-29T07:28:02;7.53;;;4.20;;
42802;SDS011;28447;48.682;9.022;2023-12-29T07:30:28;5.60;;;4.43;;
42802;SDS011;28447;48.682;9.022;2023-12-29T07:32:54;5.90;;;4.10;;
42802;SDS011;28447;48.682;9.022;2023-12-29T07:35:20;7.90;;;5.00;;
42802;SDS011;28447;48.682;9.022;2023-12-29T07:37:46;6.57;;;4.57;;
42802;SDS011;28447;48.682;9.022;2023-12-29T07:40:13;6.97;;;5.67;;
42802;SDS011;28447;48.682;9.022;2023-12-29T07:42:40;5.93;;;4.43;;
42802;SDS011;28447;48.682;9.022;2023-12-29T07:45:07;7.60;;;4.80;;
42802;SDS011;28447;48.682;9.022;2023-12-29T07:47:34;6.43;;;4.50;;
42802;SDS011;28447;48.682;9.022;2023-12-29T07:50:00;6.83;;;4.13;;
42802;SDS011;28447;48.682;9.022;2023-12-29T07:52:26;4.63;;;3.93;;
42802;SDS011;28447;48.682;9.022;2023-12-29T07:54:52;7.90;;;4.40;;
42802;SDS011;28447;48.682;9.022;2023-12-29T07:57:18;10.10;;;4.77;;
42802;SDS011;28447;48.682;9.022;2023-12-29T07:59:44;5.90;;;4.80;;
42802;SDS011;28447;48.682;9.022;2023-12-29T08:02:10;4.73;;;3.83;;
42802;SDS011;28447;48.682;9.022;2023-12-29T08:04:36;7.40;;;5.00;;
42802;SDS011;28447;48.682;9.022;2023-12-29T08:07:03;5.23;;;4.33;;
42802;SDS011;28447;48.682;9.022;2023-12-29T08:09:29;5.33;;;4.30;;
42802;SDS011;28447;48.682;9.022;2023-12-29T08:11:55;5.93;;;4.17;;
42802;SDS011;28447;48.682;9.022;2023-12-29T08:14:21;6.37;;;4.50;;
42802;SDS011;28447;48.682;9.022;2023-12-29T08:16:48;5.30;;;4.30;;
42802;SDS011;28447;48.682;9.022;2023-12-29T08:19:14;11.97;;;4.70;;
42802;SDS011;28447;48.682;9.022;2023-12-29T08:21:41;5.63;;;4.50;;
42802;SDS011;28447;48.682;9.022;2023-12-29T08:24:07;7.40;;;5.20;;
42802;SDS011;28447;48.682;9.022;2023-12-29T08:26:33;6.90;;;4.77;;
42802;SDS011;28447;48.682;9.022;2023-12-29T08:28:59;5.43;;;4.80;;
42802;SDS011;28447;48.682;9.022;2023-12-29T08:31:25;7.90;;;5.87;;
42802;SDS011;28447;48.682;9.022;2023-12-29T08:33:53;6.13;;;5.47;;
42802;SDS011;28447;48.682;9.022;2023-12-29T08:36:20;6.90;;;5.23;;
42802;SDS011;28447;48.682;9.022;2023-12-29T08:38:46;7.30;;;5.30;;
42802;SDS011;28447;48.682;9.022;2023-12-29T08:41:15;10.83;;;5.53;;
42802;SDS011;28447;48.682;9.022;2023-12-29T08:43:41;6.37;;;4.80;;
42802;SDS011;28447;48.682;9.022;2023-12-29T08:46:07;6.80;;;5.03;;
42802;SDS011;28447;48.682;9.022;2023-12-29T08:48:33;6.97;;;4.97;;
42802;SDS011;28447;48.682;9.022;2023-12-29T08:50:59;6.03;;;4.97;;
42802;SDS011;28447;48.682;9.022;2023-12-29T08:53:26;5.43;;;4.40;;
42802;SDS011;28447;48.682;9.022;2023-12-29T08:55:52;8.10;;;4.40;;
42802;SDS011;28447;48.682;9.022;2023-12-29T08:58:18;5.73;;;4.40;;
42802;SDS011;28447;48.682;9.022;2023-12-29T09:00:44;5.40;;;4.27;;
42802;SDS011;28447;48.682;9.022;2023-12-29T09:03:10;6.10;;;4.20;;
42802;SDS011;28447;48.682;9.022;2023-12-29T09:05:36;4.27;;;3.70;;
42802;SDS011;28447;48.682;9.022;2023-12-29T09:08:02;5.93;;;4.07;;
42802;SDS011;28447;48.682;9.022;2023-12-29T09:10:28;6.30;;;4.67;;
42802;SDS011;28447;48.682;9.022;2023-12-29T09:12:54;4.80;;;3.93;;
42802;SDS011;28447;48.682;9.022;2023-12-29T09:15:20;6.27;;;4.40;;
42802;SDS011;28447;48.682;9.022;2023-12-29T09:17:46;7.97;;;4.23;;
42802;SDS011;28447;48.682;9.022;2023-12-29T09:20:12;6.60;;;4.43;;
42802;SDS011;28447;48.682;9.022;2023-12-29T09:22:39;5.90;;;3.50;;
42802;SDS011;28447;48.682;9.022;2023-12-29T09:25:05;5.20;;;3.70;;
42802;SDS011;28447;48.682;9.022;2023-12-29T09:27:31;4.30;;;3.40;;
42802;SDS011;28447;48.682;9.022;2023-12-29T09:29:57;3.77;;;3.23;;
42802;SDS011;28447;48.682;9.022;2023-12-29T09:32:23;5.47;;;3.93;;
42802;SDS011;28447;48.682;9.022;2023-12-29T09:34:49;4.30;;;3.77;;
42802;SDS011;28447;48.682;9.022;2023-12-29T09:37:17;4.83;;;3.60;;
42802;SDS011;28447;48.682;9.022;2023-12-29T09:39:43;10.60;;;3.80;;
42802;SDS011;28447;48.682;9.022;2023-12-29T09:42:09;6.73;;;4.10;;
42802;SDS011;28447;48.682;9.022;2023-12-29T09:44:37;5.50;;;4.00;;
42802;SDS011;28447;48.682;9.022;2023-12-29T09:47:03;6.80;;;3.50;;
42802;SDS011;28447;48.682;9.022;2023-12-29T09:49:31;4.10;;;3.43;;
42802;SDS011;28447;48.682;9.022;2023-12-29T09:52:01;5.57;;;4.00;;
42802;SDS011;28447;48.682;9.022;2023-12-29T09:54:28;4.67;;;3.70;;
42802;SDS011;28447;48.682;9.022;2023-12-29T09:56:54;5.73;;;3.13;;
42802;SDS011;28447;48.682;9.022;2023-12-29T09:59:20;4.40;;;3.27;;
42802;SDS011;28447;48.682;9.022;2023-12-29T10:01:47;5.90;;;4.20;;
42802;SDS011;28447;48.682;9.022;2023-12-29T10:04:13;4.60;;;3.60;;
42802;SDS011;28447;48.682;9.022;2023-12-29T10:06:41;4.97;;;3.57;;
42802;SDS011;28447;48.682;9.022;2023-12-29T10:09:12;4.33;;;3.30;;
42802;SDS011;28447;48.682;9.022;2023-12-29T10:11:38;4.40;;;3.80;;
42802;SDS011;28447;48.682;9.022;2023-12-29T10:14:30;4.20;;;3.17;;
42802;SDS011;28447;48.682;9.022;2023-12-29T10:16:53;3.30;;;2.80;;
42802;SDS011;28447;48.682;9.022;2023-12-29T10:19:27;3.67;;;2.50;;
42802;SDS011;28447;48.682;9.022;2023-12-29T10:21:57;3.40;;;2.90;;
42802;SDS011;28447;48.682;9.022;2023-12-29T10:24:27;3.10;;;2.70;;
42802;SDS011;28447;48.682;9.022;2023-12-29T10:26:53;2.90;;;2.50;;
42802;SDS011;28447;48.682;9.022;2023-12-29T10:29:21;3.27;;;2.90;;
42802;SDS011;28447;48.682;9.022;2023-12-29T10:31:47;3.23;;;2.50;;
42802;SDS011;28447;48.682;9.022;2023-12-29T10:34:20;4.10;;;2.80;;
42802;SDS011;28447;48.682;9.022;2023-12-29T10:36:47;4.20;;;3.03;;
42802;SDS011;28447;48.682;9.022;2023-12-29T10:39:14;2.83;;;2.40;;
42802;SDS011;28447;48.682;9.022;2023-12-29T10:41:40;3.13;;;2.60;;
42802;SDS011;28447;48.682;9.022;2023-12-29T10:44:07;3.10;;;2.60;;
42802;SDS011;28447;48.682;9.022;2023-12-29T10:46:33;3.40;;;2.77;;
42802;SDS011;28447;48.682;9.022;2023-12-29T10:49:08;3.30;;;2.80;;
42802;SDS011;28447;48.682;9.022;2023-12-29T10:51:35;3.80;;;3.10;;
42802;SDS011;28447;48.682;9.022;2023-12-29T10:54:02;3.60;;;2.80;;
42802;SDS011;28447;48.682;9.022;2023-12-29T10:56:28;3.23;;;2.90;;
42802;SDS011;28447;48.682;9.022;2023-12-29T10:59:04;3.00;;;2.70;;
42802;SDS011;28447;48.682;9.022;2023-12-29T11:01:32;2.93;;;2.30;;
42802;SDS011;28447;48.682;9.022;2023-12-29T11:04:02;3.33;;;2.57;;
42802;SDS011;28447;48.682;9.022;2023-12-29T11:06:29;3.47;;;2.33;;
42802;SDS011;28447;48.682;9.022;2023-12-29T11:08:56;3.97;;;2.57;;
42802;SDS011;28447;48.682;9.022;2023-12-29T11:11:22;3.93;;;2.47;;
42802;SDS011;28447;48.682;9.022;2023-12-29T11:13:48;3.20;;;2.70;;
42802;SDS011;28447;48.682;9.022;2023-12-29T11:16:15;2.53;;;1.93;;
42802;SDS011;28447;48.682;9.022;2023-12-29T11:18:46;3.57;;;2.60;;
42802;SDS011;28447;48.682;9.022;2023-12-29T11:21:13;2.40;;;2.20;;
42802;SDS011;28447;48.682;9.022;2023-12-29T11:23:39;5.73;;;2.40;;
42802;SDS011;28447;48.682;9.022;2023-12-29T11:26:05;4.20;;;2.73;;
42802;SDS011;28447;48.682;9.022;2023-12-29T11:28:32;2.53;;;2.33;;
42802;SDS011;28447;48.682;9.022;2023-12-29T11:30:58;2.47;;;2.27;;
42802;SDS011;28447;48.682;9.022;2023-12-29T11:33:30;3.17;;;2.33;;
42802;SDS011;28447;48.682;9.022;2023-12-29T11:36:02;2.50;;;2.10;;
42802;SDS011;28447;48.682;9.022;2023-12-29T11:41:02;2.40;;;2.20;;
42802;SDS011;28447;48.682;9.022;2023-12-29T11:43:31;3.53;;;2.30;;
42802;SDS011;28447;48.682;9.022;2023-12-29T11:45:57;2.27;;;2.07;;
42802;SDS011;28447;48.682;9.022;2023-12-29T11:53:52;2.87;;;2.40;;
42802;SDS011;28447;48.682;9.022;2023-12-29T11:56:18;2.40;;;2.20;;
42802;SDS011;28447;48.682;9.022;2023-12-29T11:58:44;2.97;;;2.20;;
42802;SDS011;28447;48.682;9.022;2023-12-29T12:01:10;3.17;;;2.37;;
42802;SDS011;28447;48.682;9.022;2023-12-29T12:03:36;2.30;;;2.10;;
42802;SDS011;28447;48.682;9.022;2023-12-29T12:06:02;2.57;;;2.37;;
42802;SDS011;28447;48.682;9.022;2023-12-29T12:08:35;2.33;;;2.00;;
42802;SDS011;28447;48.682;9.022;2023-12-29T12:13:49;2.77;;;2.33;;
42802;SDS011;28447;48.682;9.022;2023-12-29T12:16:57;3.50;;;2.20;;
42802;SDS011;28447;48.682;9.022;2023-12-29T12:19:04;2.27;;;2.07;;
42802;SDS011;28447;48.682;9.022;2023-12-29T12:21:30;2.93;;;2.50;;
42802;SDS011;28447;48.682;9.022;2023-12-29T12:23:56;3.03;;;2.30;;
42802;SDS011;28447;48.682;9.022;2023-12-29T12:26:23;3.83;;;2.63;;
42802;SDS011;28447;48.682;9.022;2023-12-29T12:28:54;2.73;;;2.33;;
42802;SDS011;28447;48.682;9.022;2023-12-29T12:31:20;2.43;;;2.17;;
42802;SDS011;28447;48.682;9.022;2023-12-29T12:33:56;3.03;;;2.20;;
42802;SDS011;28447;48.682;9.022;2023-12-29T12:36:25;2.77;;;2.20;;
42802;SDS011;28447;48.682;9.022;2023-12-29T12:38:54;2.07;;;1.87;;
42802;SDS011;28447;48.682;9.022;2023-12-29T12:41:21;2.70;;;2.27;;
42802;SDS011;28447;48.682;9.022;2023-12-29T12:43:53;2.10;;;1.90;;
42802;SDS011;28447;48.682;9.022;2023-12-29T12:46:23;2.57;;;2.03;;
42802;SDS011;28447;48.682;9.022;2023-12-29T12:48:52;3.07;;;2.50;;
42802;SDS011;28447;48.682;9.022;2023-12-29T12:51:20;2.53;;;2.30;;
42802;SDS011;28447;48.682;9.022;2023-12-29T12:53:46;3.03;;;2.27;;
42802;SDS011;28447;48.682;9.022;2023-12-29T12:56:16;2.40;;;2.20;;
42802;SDS011;28447;48.682;9.022;2023-12-29T12:58:43;2.03;;;1.83;;
42802;SDS011;28447;48.682;9.022;2023-12-29T13:01:09;4.47;;;2.13;;
42802;SDS011;28447;48.682;9.022;2023-12-29T13:03:36;2.60;;;2.30;;
42802;SDS011;28447;48.682;9.022;2023-12-29T13:06:03;2.30;;;2.10;;
42802;SDS011;28447;48.682;9.022;2023-12-29T13:08:29;2.30;;;2.10;;
42802;SDS011;28447;48.682;9.022;2023-12-29T13:10:56;2.87;;;2.13;;
42802;SDS011;28447;48.682;9.022;2023-12-29T13:13:23;2.40;;;1.93;;
42802;SDS011;28447;48.682;9.022;2023-12-29T13:15:49;2.30;;;2.10;;
42802;SDS011;28447;48.682;9.022;2023-12-29T13:18:16;2.30;;;1.90;;
42802;SDS011;28447;48.682;9.022;2023-12-29T13:20:48;3.03;;;2.17;;
42802;SDS011;28447;48.682;9.022;2023-12-29T13:23:14;2.93;;;2.00;;
42802;SDS011;28447;48.682;9.022;2023-12-29T13:25:42;3.17;;;2.60;;
42802;SDS011;28447;48.682;9.022;2023-12-29T13:28:09;3.57;;;2.77;;
42802;SDS011;28447;48.682;9.022;2023-12-29T13:30:36;2.60;;;2.23;;
42802;SDS011;28447;48.682;9.022;2023-12-29T13:33:14;4.80;;;3.30;;
42802;SDS011;28447;48.682;9.022;2023-12-29T13:35:50;3.67;;;2.90;;
42802;SDS011;28447;48.682;9.022;2023-12-29T13:38:21;3.00;;;2.40;;
42802;SDS011;28447;48.682;9.022;2023-12-29T13:41:07;3.30;;;2.43;;
42802;SDS011;28447;48.682;9.022;2023-12-29T13:43:35;2.97;;;2.20;;
42802;SDS011;28447;48.682;9.022;2023-12-29T13:46:03;4.70;;;2.50;;
42802;SDS011;28447;48.682;9.022;2023-12-29T13:48:29;2.80;;;2.33;;
42802;SDS011;28447;48.682;9.022;2023-12-29T13:50:55;4.30;;;2.73;;
42802;SDS011;28447;48.682;9.022;2023-12-29T13:53:21;3.37;;;2.70;;
42802;SDS011;28447;48.682;9.022;2023-12-29T13:55:47;2.57;;;2.23;;
42802;SDS011;28447;48.682;9.022;2023-12-29T13:58:14;2.87;;;2.57;;
42802;SDS011;28447;48.682;9.022;2023-12-29T14:00:41;4.40;;;2.70;;
42802;SDS011;28447;48.682;9.022;2023-12-29T14:03:15;2.53;;;2.20;;
42802;SDS011;28447;48.682;9.022;2023-12-29T14:05:48;2.40;;;2.20;;
42802;SDS011;28447;48.682;9.022;2023-12-29T14:08:24;3.00;;;2.50;;
42802;SDS011;28447;48.682;9.022;2023-12-29T14:10:51;5.47;;;3.17;;
42802;SDS011;28447;48.682;9.022;2023-12-29T14:13:18;3.00;;;2.47;;
42802;SDS011;28447;48.682;9.022;2023-12-29T14:15:45;4.40;;;2.40;;
42802;SDS011;28447;48.682;9.022;2023-12-29T14:20:42;2.53;;;2.17;;
42802;SDS011;28447;48.682;9.022;2023-12-29T14:23:08;2.50;;;2.30;;
42802;SDS011;28447;48.682;9.022;2023-12-29T14:25:35;2.60;;;2.40;;
42802;SDS011;28447;48.682;9.022;2023-12-29T14:28:02;2.30;;;2.10;;
42802;SDS011;28447;48.682;9.022;2023-12-29T14:30:28;2.60;;;2.20;;
42802;SDS011;28447;48.682;9.022;2023-12-29T14:32:59;3.23;;;2.00;;
42802;SDS011;28447;48.682;9.022;2023-12-29T14:35:25;4.70;;;2.53;;
42802;SDS011;28447;48.682;9.022;2023-12-29T14:37:51;2.50;;;2.30;;
42802;SDS011;28447;48.682;9.022;2023-12-29T14:40:17;3.70;;;2.67;;
42802;SDS011;28447;48.682;9.022;2023-12-29T14:42:44;2.40;;;2.10;;
42802;SDS011;28447;48.682;9.022;2023-12-29T14:45:11;3.77;;;2.17;;
42802;SDS011;28447;48.682;9.022;2023-12-29T14:47:37;5.57;;;2.23;;
42802;SDS011;28447;48.682;9.022;2023-12-29T14:50:04;3.30;;;2.40;;
42802;SDS011;28447;48.682;9.022;2023-12-29T14:52:30;5.87;;;2.80;;
42802;SDS011;28447;48.682;9.022;2023-12-29T14:54:56;3.10;;;2.53;;
42802;SDS011;28447;48.682;9.022;2023-12-29T14:57:22;3.53;;;2.20;;
42802;SDS011;28447;48.682;9.022;2023-12-29T14:59:48;2.80;;;2.23;;
42802;SDS011;28447;48.682;9.022;2023-12-29T15:02:14;2.70;;;2.23;;
42802;SDS011;28447;48.682;9.022;2023-12-29T15:04:40;3.07;;;2.43;;
42802;SDS011;28447;48.682;9.022;2023-12-29T15:07:06;3.57;;;2.60;;
42802;SDS011;28447;48.682;9.022;2023-12-29T15:09:32;4.20;;;2.73;;
42802;SDS011;28447;48.682;9.022;2023-12-29T15:12:00;2.83;;;2.57;;
42802;SDS011;28447;48.682;9.022;2023-12-29T15:14:27;2.53;;;2.30;;
42802;SDS011;28447;48.682;9.022;2023-12-29T15:16:53;3.23;;;2.70;;
42802;SDS011;28447;48.682;9.022;2023-12-29T15:19:19;4.10;;;3.30;;
42802;SDS011;28447;48.682;9.022;2023-12-29T15:21:45;3.20;;;2.53;;
42802;SDS011;28447;48.682;9.022;2023-12-29T15:24:11;3.63;;;2.60;;
42802;SDS011;28447;48.682;9.022;2023-12-29T15:26:37;3.23;;;2.60;;
42802;SDS011;28447;48.682;9.022;2023-12-29T15:29:03;5.60;;;2.47;;
42802;SDS011;28447;48.682;9.022;2023-12-29T15:31:30;5.27;;;2.30;;
42802;SDS011;28447;48.682;9.022;2023-12-29T15:33:56;3.13;;;2.47;;
42802;SDS011;28447;48.682;9.022;2023-12-29T15:36:22;3.43;;;2.90;;
42802;SDS011;28447;48.682;9.022;2023-12-29T15:38:49;2.63;;;2.43;;
42802;SDS011;28447;48.682;9.022;2023-12-29T15:41:15;3.60;;;2.40;;
42802;SDS011;28447;48.682;9.022;2023-12-29T15:43:41;2.57;;;2.30;;
42802;SDS011;28447;48.682;9.022;2023-12-29T15:46:17;3.80;;;2.70;;
42802;SDS011;28447;48.682;9.022;2023-12-29T15:48:43;3.30;;;2.50;;
42802;SDS011;28447;48.682;9.022;2023-12-29T15:51:12;2.80;;;2.00;;
42802;SDS011;28447;48.682;9.022;2023-12-29T15:53:38;2.97;;;2.30;;
42802;SDS011;28447;48.682;9.022;2023-12-29T15:56:05;2.30;;;2.10;;
42802;SDS011;28447;48.682;9.022;2023-12-29T15:58:31;3.03;;;2.40;;
42802;SDS011;28447;48.682;9.022;2023-12-29T16:00:57;3.27;;;2.30;;
42802;SDS011;28447;48.682;9.022;2023-12-29T16:03:23;4.70;;;2.70;;
42802;SDS011;28447;48.682;9.022;2023-12-29T16:05:49;3.80;;;2.57;;
42802;SDS011;28447;48.682;9.022;2023-12-29T16:08:15;2.97;;;2.67;;
42802;SDS011;28447;48.682;9.022;2023-12-29T16:10:42;2.87;;;2.20;;
42802;SDS011;28447;48.682;9.022;2023-12-29T16:13:08;3.20;;;2.60;;
42802;SDS011;28447;48.682;9.022;2023-12-29T16:15:34;3.40;;;2.53;;
42802;SDS011;28447;48.682;9.022;2023-12-29T16:18:00;4.23;;;3.00;;
42802;SDS011;28447;48.682;9.022;2023-12-29T16:20:26;4.83;;;2.70;;
42802;SDS011;28447;48.682;9.022;2023-12-29T16:22:52;4.33;;;2.67;;
42802;SDS011;28447;48.682;9.022;2023-12-29T16:25:18;3.33;;;2.80;;
42802;SDS011;28447;48.682;9.022;2023-12-29T16:27:44;6.63;;;4.00;;
42802;SDS011;28447;48.682;9.022;2023-12-29T16:30:11;3.37;;;2.40;;
42802;SDS011;28447;48.682;9.022;2023-12-29T16:32:37;4.97;;;3.00;;
42802;SDS011;28447;48.682;9.022;2023-12-29T16:35:03;3.73;;;2.90;;
42802;SDS011;28447;48.682;9.022;2023-12-29T16:37:35;5.70;;;3.17;;
42802;SDS011;28447;48.682;9.022;2023-12-29T16:40:02;3.80;;;2.90;;
42802;SDS011;28447;48.682;9.022;2023-12-29T16:42:28;4.67;;;3.20;;
42802;SDS011;28447;48.682;9.022;2023-12-29T16:44:54;3.47;;;2.67;;
42802;SDS011;28447;48.682;9.022;2023-12-29T16:47:19;4.27;;;2.60;;
42802;SDS011;28447;48.682;9.022;2023-12-29T16:49:45;3.67;;;2.93;;
42802;SDS011;28447;48.682;9.022;2023-12-29T16:52:11;5.10;;;3.20;;
42802;SDS011;28447;48.682;9.022;2023-12-29T16:54:37;4.27;;;2.90;;
42802;SDS011;28447;48.682;9.022;2023-12-29T16:57:04;3.80;;;2.60;;
42802;SDS011;28447;48.682;9.022;2023-12-29T16:59:30;8.77;;;4.83;;
42802;SDS011;28447;48.682;9.022;2023-12-29T17:01:56;3.50;;;2.90;;
42802;SDS011;28447;48.682;9.022;2023-12-29T17:04:22;6.77;;;4.00;;
42802;SDS011;28447;48.682;9.022;2023-12-29T17:06:49;6.87;;;3.43;;
42802;SDS011;28447;48.682;9.022;2023-12-29T17:09:16;3.13;;;2.83;;
42802;SDS011;28447;48.682;9.022;2023-12-29T17:11:43;5.13;;;3.10;;
42802;SDS011;28447;48.682;9.022;2023-12-29T17:14:09;4.07;;;3.10;;
42802;SDS011;28447;48.682;9.022;2023-12-29T17:16:38;4.33;;;3.10;;
42802;SDS011;28447;48.682;9.022;2023-12-29T17:19:04;4.43;;;3.53;;
42802;SDS011;28447;48.682;9.022;2023-12-29T17:21:30;4.30;;;3.37;;
42802;SDS011;28447;48.682;9.022;2023-12-29T17:23:56;4.40;;;3.50;;
42802;SDS011;28447;48.682;9.022;2023-12-29T17:26:22;3.20;;;2.70;;
42802;SDS011;28447;48.682;9.022;2023-12-29T17:28:48;4.20;;;3.40;;
42802;SDS011;28447;48.682;9.022;2023-12-29T17:31:16;4.60;;;3.37;;
42802;SDS011;28447;48.682;9.022;2023-12-29T17:33:42;4.67;;;3.43;;
42802;SDS011;28447;48.682;9.022;2023-12-29T17:36:11;4.63;;;3.27;;
42802;SDS011;28447;48.682;9.022;2023-12-29T17:38:37;5.87;;;3.70;;
42802;SDS011;28447;48.682;9.022;2023-12-29T17:41:04;3.67;;;2.93;;
42802;SDS011;28447;48.682;9.022;2023-12-29T17:43:30;5.20;;;3.50;;
42802;SDS011;28447;48.682;9.022;2023-12-29T17:45:56;4.93;;;3.20;;
42802;SDS011;28447;48.682;9.022;2023-12-29T17:48:23;4.33;;;3.50;;
42802;SDS011;28447;48.682;9.022;2023-12-29T17:50:49;4.00;;;3.20;;
42802;SDS011;28447;48.682;9.022;2023-12-29T17:53:15;5.80;;;4.30;;
42802;SDS011;28447;48.682;9.022;2023-12-29T17:55:42;4.87;;;3.60;;
42802;SDS011;28447;48.682;9.022;2023-12-29T17:58:08;4.90;;;3.80;;
42802;SDS011;28447;48.682;9.022;2023-12-29T18:00:34;5.37;;;3.80;;
42802;SDS011;28447;48.682;9.022;2023-12-29T18:03:01;5.30;;;4.40;;
42802;SDS011;28447;48.682;9.022;2023-12-29T18:05:28;7.80;;;5.10;;
42802;SDS011;28447;48.682;9.022;2023-12-29T18:07:54;10.40;;;4.93;;
42802;SDS011;28447;48.682;9.022;2023-12-29T18:10:20;6.30;;;4.40;;
42802;SDS011;28447;48.682;9.022;2023-12-29T18:12:46;5.30;;;4.47;;
42802;SDS011;28447;48.682;9.022;2023-12-29T18:15:12;6.80;;;4.23;;
42802;SDS011;28447;48.682;9.022;2023-12-29T18:17:39;6.03;;;4.33;;
42802;SDS011;28447;48.682;9.022;2023-12-29T18:20:05;5.63;;;4.37;;
42802;SDS011;28447;48.682;9.022;2023-12-29T18:22:32;5.53;;;4.20;;
42802;SDS011;28447;48.682;9.022;2023-12-29T18:24:58;10.17;;;5.33;;
42802;SDS011;28447;48.682;9.022;2023-12-29T18:27:25;7.67;;;5.40;;
42802;SDS011;28447;48.682;9.022;2023-12-29T18:29:57;10.13;;;6.90;;
42802;SDS011;28447;48.682;9.022;2023-12-29T18:32:23;7.93;;;6.37;;
42802;SDS011;28447;48.682;9.022;2023-12-29T18:34:49;9.10;;;6.10;;
42802;SDS011;28447;48.682;9.022;2023-12-29T18:37:15;9.60;;;6.70;;
42802;SDS011;28447;48.682;9.022;2023-12-29T18:39:41;9.10;;;6.47;;
42802;SDS011;28447;48.682;9.022;2023-12-29T18:42:09;9.90;;;7.30;;
42802;SDS011;28447;48.682;9.022;2023-12-29T18:44:38;9.40;;;6.43;;
42802;SDS011;28447;48.682;9.022;2023-12-29T18:47:04;7.87;;;6.30;;
42802;SDS011;28447;48.682;9.022;2023-12-29T18:49:31;8.17;;;5.70;;
42802;SDS011;28447;48.682;9.022;2023-12-29T18:51:57;7.80;;;6.23;;
42802;SDS011;28447;48.682;9.022;2023-12-29T18:54:23;8.50;;;6.60;;
42802;SDS011;28447;48.682;9.022;2023-12-29T18:56:49;11.20;;;6.83;;
42802;SDS011;28447;48.682;9.022;2023-12-29T18:59:16;9.40;;;7.80;;
42802;SDS011;28447;48.682;9.022;2023-12-29T19:01:45;12.87;;;8.77;;
42802;SDS011;28447;48.682;9.022;2023-12-29T19:04:12;15.10;;;8.27;;
42802;SDS011;28447;48.682;9.022;2023-12-29T19:06:38;12.17;;;7.00;;
42802;SDS011;28447;48.682;9.022;2023-12-29T19:09:04;9.87;;;6.60;;
42802;SDS011;28447;48.682;9.022;2023-12-29T19:11:32;8.20;;;6.33;;
42802;SDS011;28447;48.682;9.022;2023-12-29T19:13:58;9.00;;;6.50;;
42802;SDS011;28447;48.682;9.022;2023-12-29T19:16:24;12.77;;;7.40;;
42802;SDS011;28447;48.682;9.022;2023-12-29T19:18:52;10.70;;;7.40;;
42802;SDS011;28447;48.682;9.022;2023-12-29T19:21:18;10.97;;;7.13;;
42802;SDS011;28447;48.682;9.022;2023-12-29T19:23:47;8.40;;;5.83;;
42802;SDS011;28447;48.682;9.022;2023-12-29T19:26:22;11.90;;;7.67;;
42802;SDS011;28447;48.682;9.022;2023-12-29T19:28:49;8.63;;;6.63;;
42802;SDS011;28447;48.682;9.022;2023-12-29T19:31:15;7.60;;;5.77;;
42802;SDS011;28447;48.682;9.022;2023-12-29T19:33:42;8.10;;;6.07;;
42802;SDS011;28447;48.682;9.022;2023-12-29T19:36:10;7.57;;;5.77;;
42802;SDS011;28447;48.682;9.022;2023-12-29T19:38:40;7.20;;;5.27;;
42802;SDS011;28447;48.682;9.022;2023-12-29T19:41:07;8.90;;;5.20;;
42802;SDS011;28447;48.682;9.022;2023-12-29T19:43:36;5.80;;;4.53;;
42802;SDS011;28447;48.682;9.022;2023-12-29T19:46:02;7.60;;;3.70;;
42802;SDS011;28447;48.682;9.022;2023-12-29T19:48:28;5.17;;;3.40;;
42802;SDS011;28447;48.682;9.022;2023-12-29T19:50:54;8.17;;;3.70;;
42802;SDS011;28447;48.682;9.022;2023-12-29T19:53:20;4.63;;;3.43;;
42802;SDS011;28447;48.682;9.022;2023-12-29T19:55:46;5.27;;;3.50;;
42802;SDS011;28447;48.682;9.022;2023-12-29T19:58:14;5.90;;;3.30;;
42802;SDS011;28447;48.682;9.022;2023-12-29T20:00:40;5.73;;;2.90;;